sensor_id;sensor_type;location;lat;lon;timestamp;P1;durP1;ratioP1;P2;durP2;ratioP2
6642;SDS011;3357;48.050;7.800;2024-01-10T00:01:22;20.87;;;10.90;;
6642;SDS011;3357;48.050;7.800;2024-01-10T00:03:51;22.77;;;12.20;;
6642;SDS011;3357;48.050;7.800;2024-01-10T00:06:16;26.73;;;11.63;;
6642;SDS011;3357;48.050;7.800;2024-01-10T00:08:42;25.83;;;12.07;;
6642;SDS011;3357;48.050;7.800;2024-01-10T00:11:07;29.60;;;12.63;;
6642;SDS011;3357;48.050;7.800;2024-01-10T00:13:32;26.97;;;12.00;;
6642;SDS011;3357;48.050;7.800;2024-01-10T00:15:58;23.93;;;11.20;;
6642;SDS011;3357;48.050;7.800;2024-01-10T00:18:24;23.03;;;10.70;;
6642;SDS011;3357;48.050;7.800;2024-01-10T00:20:49;25.20;;;13.00;;
6642;SDS011;3357;48.050;7.800;2024-01-10T00:23:15;24.23;;;11.27;;
6642;SDS011;3357;48.050;7.800;2024-01-10T00:25:40;24.53;;;11.53;;
6642;SDS011;3357;48.050;7.800;2024-01-10T00:28:06;26.87;;;11.77;;
6642;SDS011;3357;48.050;7.800;2024-01-10T00:30:31;25.83;;;12.03;;
6642;SDS011;3357;48.050;7.800;2024-01-10T00:32:56;26.23;;;11.67;;
6642;SDS011;3357;48.050;7.800;2024-01-10T00:35:22;24.17;;;12.50;;
6642;SDS011;3357;48.050;7.800;2024-01-10T00:37:47;27.40;;;12.87;;
6642;SDS011;3357;48.050;7.800;2024-01-10T00:40:12;25.40;;;12.03;;
6642;SDS011;3357;48.050;7.800;2024-01-10T00:42:37;30.60;;;13.57;;
6642;SDS011;3357;48.050;7.800;2024-01-10T00:45:03;25.67;;;12.93;;
6642;SDS011;3357;48.050;7.800;2024-01-10T00:47:29;21.53;;;10.77;;
6642;SDS011;3357;48.050;7.800;2024-01-10T00:49:55;25.03;;;11.00;;
6642;SDS011;3357;48.050;7.800;2024-01-10T00:52:20;31.60;;;13.23;;
6642;SDS011;3357;48.050;7.800;2024-01-10T00:54:45;24.77;;;11.63;;
6642;SDS011;3357;48.050;7.800;2024-01-10T00:57:11;26.07;;;11.70;;
6642;SDS011;3357;48.050;7.800;2024-01-10T00:59:36;24.27;;;11.20;;
6642;SDS011;3357;48.050;7.800;2024-01-10T01:02:01;32.73;;;13.20;;
6642;SDS011;3357;48.050;7.800;2024-01-10T01:04:27;28.83;;;12.57;;
6642;SDS011;3357;48.050;7.800;2024-01-10T01:06:53;21.83;;;10.83;;
6642;SDS011;3357;48.050;7.800;2024-01-10T01:09:18;21.77;;;11.33;;
6642;SDS011;3357;48.050;7.800;2024-01-10T01:11:44;21.20;;;11.13;;
6642;SDS011;3357;48.050;7.800;2024-01-10T01:14:09;23.23;;;11.23;;
6642;SDS011;3357;48.050;7.800;2024-01-10T01:16:34;26.30;;;12.50;;
6642;SDS011;3357;48.050;7.800;2024-01-10T01:19:00;22.20;;;11.17;;
6642;SDS011;3357;48.050;7.800;2024-01-10T01:21:25;22.97;;;11.20;;
6642;SDS011;3357;48.050;7.800;2024-01-10T01:23:50;30.20;;;13.57;;
6642;SDS011;3357;48.050;7.800;2024-01-10T01:26:16;23.13;;;10.87;;
6642;SDS011;3357;48.050;7.800;2024-01-10T01:28:41;25.43;;;12.30;;
6642;SDS011;3357;48.050;7.800;2024-01-10T01:31:06;25.47;;;12.87;;
6642;SDS011;3357;48.050;7.800;2024-01-10T01:33:31;24.43;;;11.70;;
6642;SDS011;3357;48.050;7.800;2024-01-10T01:35:57;28.57;;;13.10;;
6642;SDS011;3357;48.050;7.800;2024-01-10T01:38:22;28.57;;;12.33;;
6642;SDS011;3357;48.050;7.800;2024-01-10T01:40:47;29.50;;;12.30;;
6642;SDS011;3357;48.050;7.800;2024-01-10T01:43:19;26.80;;;13.23;;
6642;SDS011;3357;48.050;7.800;2024-01-10T01:45:47;24.50;;;12.57;;
6642;SDS011;3357;48.050;7.800;2024-01-10T01:48:15;28.97;;;12.77;;
6642;SDS011;3357;48.050;7.800;2024-01-10T01:50:41;25.57;;;12.70;;
6642;SDS011;3357;48.050;7.800;2024-01-10T01:53:06;31.37;;;13.23;;
6642;SDS011;3357;48.050;7.800;2024-01-10T01:55:32;24.60;;;12.10;;
6642;SDS011;3357;48.050;7.800;2024-01-10T01:57:57;25.90;;;12.83;;
6642;SDS011;3357;48.050;7.800;2024-01-10T02:00:23;27.10;;;13.00;;
6642;SDS011;3357;48.050;7.800;2024-01-10T02:02:48;27.67;;;12.43;;
6642;SDS011;3357;48.050;7.800;2024-01-10T02:05:14;26.13;;;12.50;;
6642;SDS011;3357;48.050;7.800;2024-01-10T02:07:40;30.50;;;13.27;;
6642;SDS011;3357;48.050;7.800;2024-01-10T02:10:05;32.97;;;13.63;;
6642;SDS011;3357;48.050;7.800;2024-01-10T02:12:31;28.03;;;12.63;;
6642;SDS011;3357;48.050;7.800;2024-01-10T02:14:56;27.63;;;12.13;;
6642;SDS011;3357;48.050;7.800;2024-01-10T02:17:22;27.43;;;12.30;;
6642;SDS011;3357;48.050;7.800;2024-01-10T02:19:47;32.67;;;13.40;;
6642;SDS011;3357;48.050;7.800;2024-01-10T02:22:12;35.70;;;13.00;;
6642;SDS011;3357;48.050;7.800;2024-01-10T02:24:37;24.47;;;11.90;;
6642;SDS011;3357;48.050;7.800;2024-01-10T02:27:03;24.63;;;12.27;;
6642;SDS011;3357;48.050;7.800;2024-01-10T02:29:28;30.33;;;13.20;;
6642;SDS011;3357;48.050;7.800;2024-01-10T02:31:55;27.13;;;11.50;;
6642;SDS011;3357;48.050;7.800;2024-01-10T02:34:20;27.07;;;13.10;;
6642;SDS011;3357;48.050;7.800;2024-01-10T02:36:45;30.27;;;13.17;;
6642;SDS011;3357;48.050;7.800;2024-01-10T02:39:11;27.60;;;12.80;;
6642;SDS011;3357;48.050;7.800;2024-01-10T02:41:36;31.23;;;13.67;;
6642;SDS011;3357;48.050;7.800;2024-01-10T02:44:01;27.87;;;12.83;;
6642;SDS011;3357;48.050;7.800;2024-01-10T02:46:26;29.67;;;13.77;;
6642;SDS011;3357;48.050;7.800;2024-01-10T02:48:55;24.50;;;11.43;;
6642;SDS011;3357;48.050;7.800;2024-01-10T02:51:21;29.50;;;12.67;;
6642;SDS011;3357;48.050;7.800;2024-01-10T02:53:46;37.43;;;14.50;;
6642;SDS011;3357;48.050;7.800;2024-01-10T02:56:12;28.33;;;13.30;;
6642;SDS011;3357;48.050;7.800;2024-01-10T02:58:37;30.10;;;12.70;;
6642;SDS011;3357;48.050;7.800;2024-01-10T03:01:02;28.47;;;12.80;;
6642;SDS011;3357;48.050;7.800;2024-01-10T03:03:28;27.33;;;12.73;;
6642;SDS011;3357;48.050;7.800;2024-01-10T03:05:53;29.40;;;11.93;;
6642;SDS011;3357;48.050;7.800;2024-01-10T03:08:18;26.53;;;12.60;;
6642;SDS011;3357;48.050;7.800;2024-01-10T03:10:43;23.50;;;12.00;;
6642;SDS011;3357;48.050;7.800;2024-01-10T03:13:09;29.30;;;13.53;;
6642;SDS011;3357;48.050;7.800;2024-01-10T03:15:34;24.30;;;11.73;;
6642;SDS011;3357;48.050;7.800;2024-01-10T03:17:59;25.80;;;12.43;;
6642;SDS011;3357;48.050;7.800;2024-01-10T03:20:25;25.43;;;12.73;;
6642;SDS011;3357;48.050;7.800;2024-01-10T03:22:50;24.80;;;12.73;;
6642;SDS011;3357;48.050;7.800;2024-01-10T03:25:15;25.60;;;13.30;;
6642;SDS011;3357;48.050;7.800;2024-01-10T03:27:40;30.93;;;13.80;;
6642;SDS011;3357;48.050;7.800;2024-01-10T03:30:06;31.73;;;14.07;;
6642;SDS011;3357;48.050;7.800;2024-01-10T03:32:31;23.97;;;12.40;;
6642;SDS011;3357;48.050;7.800;2024-01-10T03:34:57;29.77;;;13.90;;
6642;SDS011;3357;48.050;7.800;2024-01-10T03:37:22;25.33;;;12.50;;
6642;SDS011;3357;48.050;7.800;2024-01-10T03:39:47;24.00;;;12.47;;
6642;SDS011;3357;48.050;7.800;2024-01-10T03:42:12;25.43;;;12.53;;
6642;SDS011;3357;48.050;7.800;2024-01-10T03:44:38;33.13;;;13.90;;
6642;SDS011;3357;48.050;7.800;2024-01-10T03:47:03;27.83;;;13.27;;
6642;SDS011;3357;48.050;7.800;2024-01-10T03:49:28;32.33;;;14.60;;
6642;SDS011;3357;48.050;7.800;2024-01-10T03:51:53;30.10;;;14.00;;
6642;SDS011;3357;48.050;7.800;2024-01-10T03:54:19;26.20;;;13.07;;
6642;SDS011;3357;48.050;7.800;2024-01-10T03:56:44;31.50;;;13.30;;
6642;SDS011;3357;48.050;7.800;2024-01-10T03:59:09;29.70;;;12.60;;
6642;SDS011;3357;48.050;7.800;2024-01-10T04:01:34;32.07;;;14.30;;
6642;SDS011;3357;48.050;7.800;2024-01-10T04:04:00;29.30;;;13.33;;
6642;SDS011;3357;48.050;7.800;2024-01-10T04:06:25;29.07;;;13.17;;
6642;SDS011;3357;48.050;7.800;2024-01-10T04:08:51;26.43;;;13.23;;
6642;SDS011;3357;48.050;7.800;2024-01-10T04:11:16;31.03;;;13.10;;
6642;SDS011;3357;48.050;7.800;2024-01-10T04:13:41;25.23;;;12.10;;
6642;SDS011;3357;48.050;7.800;2024-01-10T04:16:07;27.93;;;13.07;;
6642;SDS011;3357;48.050;7.800;2024-01-10T04:18:32;28.87;;;12.40;;
6642;SDS011;3357;48.050;7.800;2024-01-10T04:20:57;29.10;;;12.27;;
6642;SDS011;3357;48.050;7.800;2024-01-10T04:23:22;36.43;;;14.60;;
6642;SDS011;3357;48.050;7.800;2024-01-10T04:25:48;33.07;;;14.87;;
6642;SDS011;3357;48.050;7.800;2024-01-10T04:28:13;23.40;;;13.13;;
6642;SDS011;3357;48.050;7.800;2024-01-10T04:30:38;33.07;;;14.40;;
6642;SDS011;3357;48.050;7.800;2024-01-10T04:33:03;24.43;;;12.40;;
6642;SDS011;3357;48.050;7.800;2024-01-10T04:35:29;32.00;;;13.40;;
6642;SDS011;3357;48.050;7.800;2024-01-10T04:37:54;24.17;;;12.80;;
6642;SDS011;3357;48.050;7.800;2024-01-10T04:40:19;26.70;;;12.60;;
6642;SDS011;3357;48.050;7.800;2024-01-10T04:42:45;30.20;;;13.70;;
6642;SDS011;3357;48.050;7.800;2024-01-10T04:45:11;28.10;;;13.07;;
6642;SDS011;3357;48.050;7.800;2024-01-10T04:47:36;25.40;;;13.00;;
6642;SDS011;3357;48.050;7.800;2024-01-10T04:50:01;30.60;;;13.40;;
6642;SDS011;3357;48.050;7.800;2024-01-10T04:52:27;30.43;;;13.70;;
6642;SDS011;3357;48.050;7.800;2024-01-10T04:54:52;26.13;;;13.37;;
6642;SDS011;3357;48.050;7.800;2024-01-10T04:57:17;28.60;;;13.60;;
6642;SDS011;3357;48.050;7.800;2024-01-10T04:59:43;25.33;;;12.60;;
6642;SDS011;3357;48.050;7.800;2024-01-10T05:02:08;25.67;;;12.20;;
6642;SDS011;3357;48.050;7.800;2024-01-10T05:04:33;29.20;;;14.77;;
6642;SDS011;3357;48.050;7.800;2024-01-10T05:06:58;32.03;;;13.97;;
6642;SDS011;3357;48.050;7.800;2024-01-10T05:09:24;33.90;;;13.93;;
6642;SDS011;3357;48.050;7.800;2024-01-10T05:11:49;34.43;;;14.23;;
6642;SDS011;3357;48.050;7.800;2024-01-10T05:14:16;26.97;;;13.10;;
6642;SDS011;3357;48.050;7.800;2024-01-10T05:16:44;29.63;;;13.90;;
6642;SDS011;3357;48.050;7.800;2024-01-10T05:19:09;25.80;;;13.00;;
6642;SDS011;3357;48.050;7.800;2024-01-10T05:21:34;28.80;;;13.57;;
6642;SDS011;3357;48.050;7.800;2024-01-10T05:24:00;32.47;;;13.80;;
6642;SDS011;3357;48.050;7.800;2024-01-10T05:26:25;27.97;;;12.87;;
6642;SDS011;3357;48.050;7.800;2024-01-10T05:28:50;32.10;;;14.33;;
6642;SDS011;3357;48.050;7.800;2024-01-10T05:31:15;30.07;;;14.00;;
6642;SDS011;3357;48.050;7.800;2024-01-10T05:33:41;34.40;;;14.13;;
6642;SDS011;3357;48.050;7.800;2024-01-10T05:36:07;31.47;;;14.63;;
6642;SDS011;3357;48.050;7.800;2024-01-10T05:38:36;27.53;;;13.43;;
6642;SDS011;3357;48.050;7.800;2024-01-10T05:41:01;29.33;;;13.50;;
6642;SDS011;3357;48.050;7.800;2024-01-10T05:43:27;28.00;;;13.93;;
6642;SDS011;3357;48.050;7.800;2024-01-10T05:45:52;26.90;;;13.03;;
6642;SDS011;3357;48.050;7.800;2024-01-10T05:48:18;32.53;;;13.37;;
6642;SDS011;3357;48.050;7.800;2024-01-10T05:50:43;29.57;;;13.60;;
6642;SDS011;3357;48.050;7.800;2024-01-10T05:53:08;33.73;;;13.83;;
6642;SDS011;3357;48.050;7.800;2024-01-10T05:55:35;32.67;;;15.10;;
6642;SDS011;3357;48.050;7.800;2024-01-10T05:58:01;34.17;;;14.10;;
6642;SDS011;3357;48.050;7.800;2024-01-10T06:00:27;26.70;;;13.47;;
6642;SDS011;3357;48.050;7.800;2024-01-10T06:02:53;29.33;;;13.10;;
6642;SDS011;3357;48.050;7.800;2024-01-10T06:05:18;25.30;;;13.10;;
6642;SDS011;3357;48.050;7.800;2024-01-10T06:07:43;31.40;;;14.20;;
6642;SDS011;3357;48.050;7.800;2024-01-10T06:10:09;26.40;;;13.47;;
6642;SDS011;3357;48.050;7.800;2024-01-10T06:12:34;33.90;;;15.03;;
6642;SDS011;3357;48.050;7.800;2024-01-10T06:15:00;33.60;;;14.00;;
6642;SDS011;3357;48.050;7.800;2024-01-10T06:17:25;33.70;;;14.90;;
6642;SDS011;3357;48.050;7.800;2024-01-10T06:19:50;24.83;;;12.53;;
6642;SDS011;3357;48.050;7.800;2024-01-10T06:22:16;32.60;;;12.67;;
6642;SDS011;3357;48.050;7.800;2024-01-10T06:24:42;28.10;;;13.73;;
6642;SDS011;3357;48.050;7.800;2024-01-10T06:27:08;33.50;;;14.57;;
6642;SDS011;3357;48.050;7.800;2024-01-10T06:29:34;33.63;;;14.47;;
6642;SDS011;3357;48.050;7.800;2024-01-10T06:31:59;28.23;;;14.40;;
6642;SDS011;3357;48.050;7.800;2024-01-10T06:34:26;30.70;;;14.27;;
6642;SDS011;3357;48.050;7.800;2024-01-10T06:36:52;34.63;;;14.87;;
6642;SDS011;3357;48.050;7.800;2024-01-10T06:39:17;27.63;;;13.57;;
6642;SDS011;3357;48.050;7.800;2024-01-10T06:41:44;31.20;;;13.80;;
6642;SDS011;3357;48.050;7.800;2024-01-10T06:44:11;28.80;;;12.60;;
6642;SDS011;3357;48.050;7.800;2024-01-10T06:46:36;29.07;;;13.80;;
6642;SDS011;3357;48.050;7.800;2024-01-10T06:49:01;31.70;;;14.03;;
6642;SDS011;3357;48.050;7.800;2024-01-10T06:51:27;29.67;;;14.40;;
6642;SDS011;3357;48.050;7.800;2024-01-10T06:53:52;34.67;;;14.33;;
6642;SDS011;3357;48.050;7.800;2024-01-10T06:56:17;25.20;;;12.20;;
6642;SDS011;3357;48.050;7.800;2024-01-10T06:58:43;34.80;;;13.67;;
6642;SDS011;3357;48.050;7.800;2024-01-10T07:01:12;28.40;;;13.63;;
6642;SDS011;3357;48.050;7.800;2024-01-10T07:03:38;36.07;;;14.90;;
6642;SDS011;3357;48.050;7.800;2024-01-10T07:06:04;31.33;;;13.27;;
6642;SDS011;3357;48.050;7.800;2024-01-10T07:08:30;26.53;;;12.60;;
6642;SDS011;3357;48.050;7.800;2024-01-10T07:10:55;28.47;;;12.77;;
6642;SDS011;3357;48.050;7.800;2024-01-10T07:13:21;32.00;;;13.47;;
6642;SDS011;3357;48.050;7.800;2024-01-10T07:15:46;29.03;;;12.40;;
6642;SDS011;3357;48.050;7.800;2024-01-10T07:18:11;26.50;;;13.57;;
6642;SDS011;3357;48.050;7.800;2024-01-10T07:20:37;27.63;;;13.10;;
6642;SDS011;3357;48.050;7.800;2024-01-10T07:23:02;25.40;;;13.13;;
6642;SDS011;3357;48.050;7.800;2024-01-10T07:25:28;26.70;;;12.20;;
6642;SDS011;3357;48.050;7.800;2024-01-10T07:27:53;28.37;;;13.27;;
6642;SDS011;3357;48.050;7.800;2024-01-10T07:30:18;27.80;;;12.77;;
6642;SDS011;3357;48.050;7.800;2024-01-10T07:32:44;35.63;;;13.90;;
6642;SDS011;3357;48.050;7.800;2024-01-10T07:35:10;26.07;;;12.90;;
6642;SDS011;3357;48.050;7.800;2024-01-10T07:37:42;29.60;;;13.60;;
6642;SDS011;3357;48.050;7.800;2024-01-10T07:40:08;29.77;;;11.93;;
6642;SDS011;3357;48.050;7.800;2024-01-10T07:42:35;25.97;;;12.80;;
6642;SDS011;3357;48.050;7.800;2024-01-10T07:45:01;25.10;;;13.27;;
6642;SDS011;3357;48.050;7.800;2024-01-10T07:47:33;28.00;;;13.67;;
6642;SDS011;3357;48.050;7.800;2024-01-10T07:50:05;34.40;;;15.10;;
6642;SDS011;3357;48.050;7.800;2024-01-10T07:52:35;28.43;;;14.23;;
6642;SDS011;3357;48.050;7.800;2024-01-10T07:55:01;40.10;;;13.40;;
6642;SDS011;3357;48.050;7.800;2024-01-10T07:57:29;32.70;;;14.30;;
6642;SDS011;3357;48.050;7.800;2024-01-10T07:59:54;27.87;;;13.80;;
6642;SDS011;3357;48.050;7.800;2024-01-10T08:02:19;32.87;;;15.70;;
6642;SDS011;3357;48.050;7.800;2024-01-10T08:04:45;30.53;;;14.40;;
6642;SDS011;3357;48.050;7.800;2024-01-10T08:07:10;30.00;;;14.50;;
6642;SDS011;3357;48.050;7.800;2024-01-10T08:09:35;29.50;;;13.23;;
6642;SDS011;3357;48.050;7.800;2024-01-10T08:12:01;29.73;;;13.77;;
6642;SDS011;3357;48.050;7.800;2024-01-10T08:14:27;24.57;;;13.00;;
6642;SDS011;3357;48.050;7.800;2024-01-10T08:16:52;26.77;;;12.70;;
6642;SDS011;3357;48.050;7.800;2024-01-10T08:19:19;23.03;;;12.60;;
6642;SDS011;3357;48.050;7.800;2024-01-10T08:21:44;26.17;;;12.40;;
6642;SDS011;3357;48.050;7.800;2024-01-10T08:24:10;24.00;;;11.70;;
6642;SDS011;3357;48.050;7.800;2024-01-10T08:26:35;27.60;;;12.17;;
6642;SDS011;3357;48.050;7.800;2024-01-10T08:29:00;21.33;;;11.20;;
6642;SDS011;3357;48.050;7.800;2024-01-10T08:31:25;24.70;;;11.50;;
6642;SDS011;3357;48.050;7.800;2024-01-10T08:33:51;23.80;;;11.50;;
6642;SDS011;3357;48.050;7.800;2024-01-10T08:36:17;25.83;;;12.20;;
6642;SDS011;3357;48.050;7.800;2024-01-10T08:38:42;25.33;;;13.40;;
6642;SDS011;3357;48.050;7.800;2024-01-10T08:41:08;25.30;;;12.07;;
6642;SDS011;3357;48.050;7.800;2024-01-10T08:43:36;32.97;;;14.27;;
6642;SDS011;3357;48.050;7.800;2024-01-10T08:46:02;22.50;;;11.80;;
6642;SDS011;3357;48.050;7.800;2024-01-10T08:48:27;22.63;;;11.93;;
6642;SDS011;3357;48.050;7.800;2024-01-10T08:50:53;27.57;;;13.40;;
6642;SDS011;3357;48.050;7.800;2024-01-10T08:53:21;27.97;;;13.23;;
6642;SDS011;3357;48.050;7.800;2024-01-10T08:55:46;24.63;;;11.40;;
6642;SDS011;3357;48.050;7.800;2024-01-10T08:58:12;31.03;;;13.00;;
6642;SDS011;3357;48.050;7.800;2024-01-10T09:00:37;28.13;;;13.17;;
6642;SDS011;3357;48.050;7.800;2024-01-10T09:03:02;29.60;;;13.10;;
6642;SDS011;3357;48.050;7.800;2024-01-10T09:05:28;26.17;;;12.90;;
6642;SDS011;3357;48.050;7.800;2024-01-10T09:07:53;30.27;;;12.00;;
6642;SDS011;3357;48.050;7.800;2024-01-10T09:10:19;26.70;;;13.27;;
6642;SDS011;3357;48.050;7.800;2024-01-10T09:12:46;27.10;;;12.70;;
6642;SDS011;3357;48.050;7.800;2024-01-10T09:15:12;22.80;;;11.53;;
6642;SDS011;3357;48.050;7.800;2024-01-10T09:17:39;24.37;;;11.67;;
6642;SDS011;3357;48.050;7.800;2024-01-10T09:20:05;25.63;;;11.93;;
6642;SDS011;3357;48.050;7.800;2024-01-10T09:22:30;25.43;;;13.17;;
6642;SDS011;3357;48.050;7.800;2024-01-10T09:24:55;24.60;;;12.13;;
6642;SDS011;3357;48.050;7.800;2024-01-10T09:27:21;25.67;;;11.07;;
6642;SDS011;3357;48.050;7.800;2024-01-10T09:29:47;24.90;;;11.40;;
6642;SDS011;3357;48.050;7.800;2024-01-10T09:32:13;27.50;;;13.00;;
6642;SDS011;3357;48.050;7.800;2024-01-10T09:34:38;24.30;;;11.93;;
6642;SDS011;3357;48.050;7.800;2024-01-10T09:37:03;29.17;;;11.50;;
6642;SDS011;3357;48.050;7.800;2024-01-10T09:39:30;31.80;;;12.77;;
6642;SDS011;3357;48.050;7.800;2024-01-10T09:41:55;27.23;;;12.40;;
6642;SDS011;3357;48.050;7.800;2024-01-10T09:44:22;26.80;;;12.17;;
6642;SDS011;3357;48.050;7.800;2024-01-10T09:46:49;23.30;;;11.27;;
6642;SDS011;3357;48.050;7.800;2024-01-10T09:49:16;28.40;;;13.90;;
6642;SDS011;3357;48.050;7.800;2024-01-10T09:51:42;28.63;;;13.90;;
6642;SDS011;3357;48.050;7.800;2024-01-10T09:54:07;27.00;;;12.90;;
6642;SDS011;3357;48.050;7.800;2024-01-10T09:56:33;26.17;;;13.67;;
6642;SDS011;3357;48.050;7.800;2024-01-10T09:58:58;27.43;;;13.93;;
6642;SDS011;3357;48.050;7.800;2024-01-10T10:01:26;28.57;;;13.97;;
6642;SDS011;3357;48.050;7.800;2024-01-10T10:03:52;27.07;;;12.37;;
6642;SDS011;3357;48.050;7.800;2024-01-10T10:06:17;27.30;;;12.20;;
6642;SDS011;3357;48.050;7.800;2024-01-10T10:08:43;27.63;;;11.97;;
6642;SDS011;3357;48.050;7.800;2024-01-10T10:11:11;27.33;;;11.70;;
6642;SDS011;3357;48.050;7.800;2024-01-10T10:13:38;25.70;;;12.70;;
6642;SDS011;3357;48.050;7.800;2024-01-10T10:16:07;26.20;;;12.97;;
6642;SDS011;3357;48.050;7.800;2024-01-10T10:18:34;24.87;;;12.87;;
6642;SDS011;3357;48.050;7.800;2024-01-10T10:21:12;24.23;;;11.57;;
6642;SDS011;3357;48.050;7.800;2024-01-10T10:23:39;26.43;;;12.13;;
6642;SDS011;3357;48.050;7.800;2024-01-10T10:26:11;25.17;;;11.83;;
6642;SDS011;3357;48.050;7.800;2024-01-10T10:28:47;23.27;;;11.40;;
6642;SDS011;3357;48.050;7.800;2024-01-10T10:31:12;24.30;;;12.23;;
6642;SDS011;3357;48.050;7.800;2024-01-10T10:33:38;28.10;;;12.27;;
6642;SDS011;3357;48.050;7.800;2024-01-10T10:36:04;23.57;;;12.60;;
6642;SDS011;3357;48.050;7.800;2024-01-10T10:38:29;25.70;;;11.70;;
6642;SDS011;3357;48.050;7.800;2024-01-10T10:40:55;29.70;;;12.50;;
6642;SDS011;3357;48.050;7.800;2024-01-10T10:43:21;22.90;;;11.67;;
6642;SDS011;3357;48.050;7.800;2024-01-10T10:45:47;23.07;;;11.23;;
6642;SDS011;3357;48.050;7.800;2024-01-10T10:48:13;20.60;;;11.30;;
6642;SDS011;3357;48.050;7.800;2024-01-10T10:50:41;22.80;;;11.50;;
6642;SDS011;3357;48.050;7.800;2024-01-10T10:53:11;23.47;;;11.13;;
6642;SDS011;3357;48.050;7.800;2024-01-10T10:55:36;22.63;;;12.03;;
6642;SDS011;3357;48.050;7.800;2024-01-10T10:58:02;26.40;;;12.27;;
6642;SDS011;3357;48.050;7.800;2024-01-10T11:00:29;22.67;;;11.50;;
6642;SDS011;3357;48.050;7.800;2024-01-10T11:02:55;26.23;;;11.60;;
6642;SDS011;3357;48.050;7.800;2024-01-10T11:05:22;22.50;;;12.27;;
6642;SDS011;3357;48.050;7.800;2024-01-10T11:16:50;24.60;;;12.73;;
6642;SDS011;3357;48.050;7.800;2024-01-10T11:19:41;31.13;;;12.73;;
6642;SDS011;3357;48.050;7.800;2024-01-10T11:25:03;27.17;;;12.50;;
6642;SDS011;3357;48.050;7.800;2024-01-10T11:27:30;28.93;;;14.13;;
6642;SDS011;3357;48.050;7.800;2024-01-10T11:29:55;32.40;;;13.97;;
6642;SDS011;3357;48.050;7.800;2024-01-10T11:32:22;29.13;;;13.80;;
6642;SDS011;3357;48.050;7.800;2024-01-10T11:37:20;33.27;;;15.43;;
6642;SDS011;3357;48.050;7.800;2024-01-10T11:39:45;29.73;;;14.27;;
6642;SDS011;3357;48.050;7.800;2024-01-10T11:42:11;33.37;;;14.77;;
6642;SDS011;3357;48.050;7.800;2024-01-10T11:44:47;26.90;;;13.57;;
6642;SDS011;3357;48.050;7.800;2024-01-10T11:47:16;31.07;;;13.93;;
6642;SDS011;3357;48.050;7.800;2024-01-10T11:49:53;28.43;;;14.17;;
6642;SDS011;3357;48.050;7.800;2024-01-10T11:52:22;29.27;;;13.67;;
6642;SDS011;3357;48.050;7.800;2024-01-10T11:54:48;31.67;;;14.57;;
6642;SDS011;3357;48.050;7.800;2024-01-10T11:57:21;34.07;;;15.60;;
6642;SDS011;3357;48.050;7.800;2024-01-10T11:59:51;29.93;;;13.97;;
6642;SDS011;3357;48.050;7.800;2024-01-10T12:02:17;27.83;;;13.17;;
6642;SDS011;3357;48.050;7.800;2024-01-10T12:04:44;28.70;;;14.67;;
6642;SDS011;3357;48.050;7.800;2024-01-10T12:07:10;25.83;;;14.13;;
6642;SDS011;3357;48.050;7.800;2024-01-10T12:09:36;24.47;;;13.83;;
6642;SDS011;3357;48.050;7.800;2024-01-10T12:12:02;27.97;;;13.10;;
6642;SDS011;3357;48.050;7.800;2024-01-10T12:14:28;25.73;;;14.07;;
6642;SDS011;3357;48.050;7.800;2024-01-10T12:16:54;25.20;;;13.20;;
6642;SDS011;3357;48.050;7.800;2024-01-10T12:19:19;25.27;;;13.53;;
6642;SDS011;3357;48.050;7.800;2024-01-10T12:21:44;26.53;;;12.43;;
6642;SDS011;3357;48.050;7.800;2024-01-10T12:24:09;27.40;;;13.50;;
6642;SDS011;3357;48.050;7.800;2024-01-10T12:26:35;26.30;;;12.70;;
6642;SDS011;3357;48.050;7.800;2024-01-10T12:29:01;31.40;;;12.57;;
6642;SDS011;3357;48.050;7.800;2024-01-10T12:31:29;26.40;;;12.00;;
6642;SDS011;3357;48.050;7.800;2024-01-10T12:33:55;23.20;;;12.90;;
6642;SDS011;3357;48.050;7.800;2024-01-10T12:36:20;26.67;;;12.83;;
6642;SDS011;3357;48.050;7.800;2024-01-10T12:38:46;27.70;;;13.00;;
6642;SDS011;3357;48.050;7.800;2024-01-10T12:41:12;23.73;;;11.77;;
6642;SDS011;3357;48.050;7.800;2024-01-10T12:43:39;23.60;;;11.53;;
6642;SDS011;3357;48.050;7.800;2024-01-10T12:46:08;25.47;;;11.30;;
6642;SDS011;3357;48.050;7.800;2024-01-10T12:48:40;22.90;;;11.33;;
6642;SDS011;3357;48.050;7.800;2024-01-10T12:51:09;24.47;;;11.57;;
6642;SDS011;3357;48.050;7.800;2024-01-10T12:53:37;21.87;;;11.70;;
6642;SDS011;3357;48.050;7.800;2024-01-10T12:56:03;23.77;;;11.67;;
6642;SDS011;3357;48.050;7.800;2024-01-10T12:58:29;21.87;;;10.73;;
6642;SDS011;3357;48.050;7.800;2024-01-10T13:00:55;20.60;;;11.00;;
6642;SDS011;3357;48.050;7.800;2024-01-10T13:03:21;21.57;;;11.07;;
6642;SDS011;3357;48.050;7.800;2024-01-10T13:05:46;23.27;;;10.53;;
6642;SDS011;3357;48.050;7.800;2024-01-10T13:08:12;26.07;;;12.50;;
6642;SDS011;3357;48.050;7.800;2024-01-10T13:10:38;20.00;;;10.27;;
6642;SDS011;3357;48.050;7.800;2024-01-10T13:13:03;23.40;;;11.07;;
6642;SDS011;3357;48.050;7.800;2024-01-10T13:15:28;27.07;;;11.10;;
6642;SDS011;3357;48.050;7.800;2024-01-10T13:17:54;26.57;;;11.77;;
6642;SDS011;3357;48.050;7.800;2024-01-10T13:20:19;19.10;;;10.50;;
6642;SDS011;3357;48.050;7.800;2024-01-10T13:22:44;18.50;;;10.27;;
6642;SDS011;3357;48.050;7.800;2024-01-10T13:25:10;23.40;;;11.23;;
6642;SDS011;3357;48.050;7.800;2024-01-10T13:27:36;23.87;;;11.30;;
6642;SDS011;3357;48.050;7.800;2024-01-10T13:30:01;20.03;;;10.47;;
6642;SDS011;3357;48.050;7.800;2024-01-10T13:32:27;21.87;;;10.80;;
6642;SDS011;3357;48.050;7.800;2024-01-10T13:34:52;21.67;;;11.00;;
6642;SDS011;3357;48.050;7.800;2024-01-10T13:37:18;22.40;;;10.80;;
6642;SDS011;3357;48.050;7.800;2024-01-10T13:39:43;23.77;;;11.03;;
6642;SDS011;3357;48.050;7.800;2024-01-10T13:42:08;29.20;;;12.03;;
6642;SDS011;3357;48.050;7.800;2024-01-10T13:44:36;23.37;;;11.30;;
6642;SDS011;3357;48.050;7.800;2024-01-10T13:47:02;18.80;;;10.97;;
6642;SDS011;3357;48.050;7.800;2024-01-10T13:49:28;20.57;;;11.10;;
6642;SDS011;3357;48.050;7.800;2024-01-10T13:51:54;24.80;;;11.07;;
6642;SDS011;3357;48.050;7.800;2024-01-10T13:54:19;23.30;;;11.30;;
6642;SDS011;3357;48.050;7.800;2024-01-10T13:56:44;18.90;;;10.27;;
6642;SDS011;3357;48.050;7.800;2024-01-10T13:59:11;19.97;;;10.50;;
6642;SDS011;3357;48.050;7.800;2024-01-10T14:01:36;22.40;;;10.50;;
6642;SDS011;3357;48.050;7.800;2024-01-10T14:04:01;19.27;;;10.70;;
6642;SDS011;3357;48.050;7.800;2024-01-10T14:06:27;24.40;;;11.07;;
6642;SDS011;3357;48.050;7.800;2024-01-10T14:08:52;28.10;;;12.00;;
6642;SDS011;3357;48.050;7.800;2024-01-10T14:11:18;20.23;;;10.90;;
6642;SDS011;3357;48.050;7.800;2024-01-10T14:13:44;29.00;;;12.27;;
6642;SDS011;3357;48.050;7.800;2024-01-10T14:16:10;26.33;;;10.97;;
6642;SDS011;3357;48.050;7.800;2024-01-10T14:18:36;22.43;;;10.13;;
6642;SDS011;3357;48.050;7.800;2024-01-10T14:21:01;23.00;;;11.00;;
6642;SDS011;3357;48.050;7.800;2024-01-10T14:23:26;25.10;;;11.13;;
6642;SDS011;3357;48.050;7.800;2024-01-10T14:25:51;20.40;;;10.67;;
6642;SDS011;3357;48.050;7.800;2024-01-10T14:28:18;23.10;;;11.67;;
6642;SDS011;3357;48.050;7.800;2024-01-10T14:30:45;20.40;;;10.77;;
6642;SDS011;3357;48.050;7.800;2024-01-10T14:33:11;23.90;;;12.17;;
6642;SDS011;3357;48.050;7.800;2024-01-10T14:35:38;18.70;;;10.40;;
6642;SDS011;3357;48.050;7.800;2024-01-10T14:38:04;18.57;;;10.53;;
6642;SDS011;3357;48.050;7.800;2024-01-10T14:40:30;24.17;;;12.63;;
6642;SDS011;3357;48.050;7.800;2024-01-10T14:42:55;23.60;;;10.90;;
6642;SDS011;3357;48.050;7.800;2024-01-10T14:45:20;22.30;;;11.90;;
6642;SDS011;3357;48.050;7.800;2024-01-10T14:47:46;24.20;;;11.13;;
6642;SDS011;3357;48.050;7.800;2024-01-10T14:50:11;23.07;;;10.63;;
6642;SDS011;3357;48.050;7.800;2024-01-10T14:52:36;25.87;;;11.97;;
6642;SDS011;3357;48.050;7.800;2024-01-10T14:55:02;22.93;;;11.23;;